Aviation Digital Data Service (ADDS)

Output produced by METARs form (2127 UTC 24 March 2019)
found at http://www.aviationweather.gov/metar/data/
 
DXXX 242100Z 18010KT 9999 FEW013 28/26 Q1012 NOSIG
TAF DXXX 241700Z 2418/2524 20010KT 9999 SCT013 
     BECMG 2422/2424 26005KT 
     BECMG 2508/2510 20012KT
       
DXNG 242100Z 12004KT CAVOK 30/16 Q1013
TAF DXNG 241700Z 2418/2518 VRB05KT 9999 FEW010